Time;durP1;ratioP1;P1;durP2;ratioP2;P2;SDS_P1;SDS_P2;PMS_P1;PMS_P2;Temp;Humidity;BMP_temperature;BMP_pressure;BME280_temperature;BME280_humidity;BME280_pressure;Samples;Min_cycle;Max_cycle;Signal;HPM_P1;HPM_P2
2024/03/30 00:01:24;;;;;;;13.70;2.45;;;15.80;72.00;;;;;;5045270;28;20029;-58
2024/03/30 00:03:52;;;;;;;7.45;2.38;;;15.70;72.10;;;;;;5046131;28;20033;-58
2024/03/30 00:06:17;;;;;;;10.45;2.83;;;15.80;72.10;;;;;;5044991;28;20037;-58
2024/03/30 00:08:43;;;;;;;8.18;2.75;;;15.80;72.10;;;;;;5045114;28;20029;-58
2024/03/30 00:11:08;;;;;;;7.15;2.22;;;15.70;72.40;;;;;;5044807;28;20029;-58
2024/03/30 00:13:34;;;;;;;16.58;3.20;;;15.70;72.30;;;;;;5045252;28;20112;-58
2024/03/30 00:16:09;;;;;;;12.35;2.55;;;15.80;72.30;;;;;;5045613;28;20029;-59
2024/03/30 00:18:35;;;;;;;12.73;2.88;;;15.70;72.20;;;;;;5045080;28;20033;-58
2024/03/30 00:21:03;;;;;;;14.60;2.63;;;15.70;72.10;;;;;;5045477;28;20036;-59
2024/03/30 00:23:32;;;;;;;12.65;2.65;;;15.70;71.70;;;;;;5045739;28;20037;-58
2024/03/30 00:25:57;;;;;;;10.60;2.30;;;15.70;71.70;;;;;;5046689;28;20027;-58
2024/03/30 00:28:23;;;;;;;8.15;2.30;;;15.70;71.80;;;;;;5045537;28;20029;-58
2024/03/30 00:30:50;;;;;;;9.73;2.25;;;15.70;71.90;;;;;;5045201;28;20135;-59
2024/03/30 00:33:15;;;;;;;11.02;2.17;;;15.70;72.30;;;;;;5045101;28;20053;-58
2024/03/30 00:35:41;;;;;;;9.35;1.98;;;15.70;72.10;;;;;;5044640;28;20029;-58
2024/03/30 00:38:07;;;;;;;8.20;2.42;;;15.70;72.20;;;;;;5044502;28;20465;-59
2024/03/30 00:40:36;;;;;;;8.90;2.63;;;15.70;72.40;;;;;;5044676;28;20041;-58
2024/03/30 00:43:02;;;;;;;13.77;3.25;;;15.70;72.30;;;;;;5044338;28;20047;-58
2024/03/30 00:45:28;;;;;;;9.70;3.13;;;15.70;72.20;;;;;;5044370;28;20079;-58
2024/03/30 00:47:53;;;;;;;6.35;2.22;;;15.70;72.30;;;;;;5044317;28;20029;-58
2024/03/30 00:50:20;;;;;;;7.72;2.33;;;15.70;72.30;;;;;;5044099;28;20029;-58
2024/03/30 00:52:45;;;;;;;8.27;2.13;;;15.70;72.30;;;;;;5044092;28;20040;-58
2024/03/30 00:55:11;;;;;;;6.97;2.28;;;15.70;73.00;;;;;;5044356;28;20461;-58
2024/03/30 00:57:41;;;;;;;10.40;2.30;;;15.60;73.00;;;;;;5044056;28;20022;-58
2024/03/30 01:00:10;;;;;;;10.40;2.20;;;15.60;73.10;;;;;;5045675;28;20029;-59
2024/03/30 01:02:38;;;;;;;9.15;2.65;;;15.60;72.60;;;;;;5043838;28;20030;-59
2024/03/30 01:05:04;;;;;;;6.80;1.88;;;15.60;72.20;;;;;;5027171;28;20037;-58
2024/03/30 01:07:30;;;;;;;7.80;1.90;;;15.60;72.80;;;;;;5044128;28;20124;-58
2024/03/30 01:09:56;;;;;;;7.25;2.10;;;15.60;72.40;;;;;;5043693;28;20502;-58
2024/03/30 01:12:22;;;;;;;8.63;2.10;;;15.60;72.70;;;;;;5043647;28;20083;-58
2024/03/30 01:14:47;;;;;;;5.95;2.00;;;15.60;72.80;;;;;;5045070;28;20037;-58
2024/03/30 01:17:13;;;;;;;7.57;2.40;;;15.60;72.40;;;;;;5026962;28;20051;-58
2024/03/30 01:19:40;;;;;;;9.93;2.00;;;15.60;72.50;;;;;;5027096;28;20034;-58
2024/03/30 01:22:06;;;;;;;5.65;1.70;;;15.50;71.90;;;;;;5043599;28;20049;-58
2024/03/30 01:24:32;;;;;;;9.48;2.03;;;15.60;71.80;;;;;;5043014;28;20394;-59
2024/03/30 01:26:58;;;;;;;7.80;1.83;;;15.60;71.70;;;;;;5043622;28;20036;-58
2024/03/30 01:29:24;;;;;;;4.82;1.75;;;15.60;71.60;;;;;;5043399;28;20099;-59
2024/03/30 01:31:53;;;;;;;5.30;1.58;;;15.60;71.70;;;;;;5043410;28;20022;-58
2024/03/30 01:34:19;;;;;;;5.97;1.65;;;15.50;71.50;;;;;;5044810;28;20029;-58
2024/03/30 01:36:44;;;;;;;7.95;1.50;;;15.50;71.40;;;;;;5043427;28;20051;-58
2024/03/30 01:39:10;;;;;;;6.68;1.67;;;15.50;71.10;;;;;;5043450;28;20457;-59
2024/03/30 01:41:36;;;;;;;6.57;1.40;;;15.60;70.70;;;;;;5044381;28;20100;-58
2024/03/30 01:44:02;;;;;;;3.35;1.25;;;15.50;70.70;;;;;;5043227;28;20036;-59
2024/03/30 01:46:28;;;;;;;4.80;1.55;;;15.50;70.50;;;;;;5026694;28;20056;-58
2024/03/30 01:48:54;;;;;;;5.53;1.60;;;15.60;71.30;;;;;;5043154;28;20042;-59
2024/03/30 01:51:20;;;;;;;8.18;2.10;;;15.50;70.50;;;;;;5043162;28;20116;-58
2024/03/30 01:53:45;;;;;;;8.50;1.30;;;15.50;70.40;;;;;;5042940;28;20104;-58
2024/03/30 01:56:11;;;;;;;6.88;1.52;;;15.50;70.50;;;;;;5026373;28;20463;-58
2024/03/30 01:58:36;;;;;;;6.88;1.63;;;15.50;70.50;;;;;;5043018;28;20117;-58
2024/03/30 02:01:03;;;;;;;7.57;1.30;;;15.50;70.30;;;;;;5042948;28;20029;-58
2024/03/30 02:03:28;;;;;;;7.20;1.80;;;15.50;70.60;;;;;;5042782;28;20507;-58
2024/03/30 02:05:54;;;;;;;6.07;1.50;;;15.50;71.10;;;;;;5042932;28;20041;-58
2024/03/30 02:08:20;;;;;;;5.25;1.23;;;15.50;71.00;;;;;;5042780;28;20029;-58
2024/03/30 02:10:46;;;;;;;5.32;1.40;;;15.50;70.80;;;;;;5042672;28;20071;-58
2024/03/30 02:13:12;;;;;;;6.07;1.58;;;15.50;70.50;;;;;;5042944;28;20030;-58
2024/03/30 02:15:38;;;;;;;6.35;1.50;;;15.50;70.30;;;;;;5042689;28;20022;-58
2024/03/30 02:18:04;;;;;;;5.25;1.33;;;15.50;70.40;;;;;;5042472;28;20090;-58
2024/03/30 02:20:30;;;;;;;5.28;1.50;;;15.50;70.20;;;;;;5042724;28;20089;-58
2024/03/30 02:22:55;;;;;;;7.45;1.73;;;15.50;70.20;;;;;;5042527;28;20144;-58
2024/03/30 02:25:22;;;;;;;5.78;1.35;;;15.50;70.20;;;;;;5042692;28;20049;-58
2024/03/30 02:27:48;;;;;;;3.40;1.35;;;15.50;70.10;;;;;;5042482;28;20437;-58
2024/03/30 02:30:32;;;;;;;6.78;1.35;;;15.50;70.20;;;;;;5042691;28;20033;-58
2024/03/30 02:32:58;;;;;;;8.68;1.30;;;15.50;70.40;;;;;;5042616;28;20079;-58
2024/03/30 02:35:24;;;;;;;5.53;1.52;;;15.50;70.50;;;;;;5043651;28;20025;-58
2024/03/30 02:37:49;;;;;;;4.88;1.48;;;15.50;70.50;;;;;;5046629;28;20033;-58
2024/03/30 02:40:15;;;;;;;4.10;1.35;;;15.40;70.70;;;;;;5029786;28;20097;-58
2024/03/30 02:42:41;;;;;;;8.45;1.55;;;15.40;70.90;;;;;;5048115;28;20095;-58
2024/03/30 02:45:07;;;;;;;3.78;1.17;;;15.40;71.10;;;;;;5047965;28;20101;-58
2024/03/30 02:47:33;;;;;;;6.85;1.65;;;15.40;71.10;;;;;;5046452;28;20040;-58
2024/03/30 02:49:58;;;;;;;6.38;1.67;;;15.40;71.20;;;;;;5029881;28;20021;-60
2024/03/30 02:52:24;;;;;;;7.00;1.40;;;15.40;71.60;;;;;;5048050;28;20026;-60
2024/03/30 02:54:49;;;;;;;5.47;1.42;;;15.40;71.90;;;;;;5046402;28;20022;-60
2024/03/30 02:57:15;;;;;;;2.15;1.17;;;15.40;72.10;;;;;;5046554;28;20029;-60
2024/03/30 02:59:42;;;;;;;7.47;1.42;;;15.40;71.50;;;;;;5046371;28;20026;-60
2024/03/30 03:02:07;;;;;;;5.18;1.83;;;15.40;71.30;;;;;;5046305;28;20060;-60
2024/03/30 03:04:33;;;;;;;4.40;1.48;;;15.40;71.00;;;;;;5046060;28;20034;-60
2024/03/30 03:06:58;;;;;;;6.57;1.50;;;15.40;71.20;;;;;;5047494;28;20026;-60
2024/03/30 03:09:24;;;;;;;5.15;1.40;;;15.40;71.00;;;;;;5029468;28;20123;-60
2024/03/30 03:11:50;;;;;;;6.47;1.50;;;15.40;71.40;;;;;;5046083;28;20059;-60
2024/03/30 03:14:15;;;;;;;5.32;1.35;;;15.40;72.30;;;;;;5061706;28;20033;-60
2024/03/30 03:16:41;;;;;;;6.68;1.35;;;15.40;71.70;;;;;;5066027;28;20033;-58
2024/03/30 03:19:06;;;;;;;7.68;1.08;;;15.40;71.90;;;;;;5066026;28;20075;-58
2024/03/30 03:21:32;;;;;;;5.82;1.77;;;15.30;71.70;;;;;;5059398;28;20089;-58
2024/03/30 03:23:57;;;;;;;7.85;1.70;;;15.30;71.40;;;;;;5045829;28;20033;-58
2024/03/30 03:26:23;;;;;;;8.00;1.80;;;15.30;71.20;;;;;;5045719;28;20104;-58
2024/03/30 03:28:49;;;;;;;5.53;1.30;;;15.30;71.60;;;;;;5046939;28;20090;-58
2024/03/30 03:31:14;;;;;;;7.05;1.42;;;15.30;71.50;;;;;;5045494;28;20033;-58
2024/03/30 03:33:40;;;;;;;6.63;1.35;;;15.30;71.60;;;;;;5045451;28;20026;-58
2024/03/30 03:36:06;;;;;;;7.00;1.50;;;15.30;71.60;;;;;;5045592;28;20025;-58
2024/03/30 03:38:31;;;;;;;6.10;1.38;;;15.30;71.10;;;;;;5045489;28;20346;-58
2024/03/30 03:40:57;;;;;;;3.70;1.23;;;15.30;71.10;;;;;;5046555;28;20040;-58
2024/03/30 03:43:22;;;;;;;8.18;1.48;;;15.30;71.10;;;;;;5028813;28;20041;-58
2024/03/30 03:45:48;;;;;;;4.68;1.55;;;15.30;71.40;;;;;;5046498;28;20044;-58
2024/03/30 03:48:14;;;;;;;5.50;1.20;;;15.30;71.60;;;;;;5045230;28;20040;-58
2024/03/30 03:50:40;;;;;;;3.17;1.13;;;15.30;71.40;;;;;;5028800;28;20078;-59
2024/03/30 03:53:06;;;;;;;8.98;1.60;;;15.20;71.60;;;;;;5028998;28;20025;-58
2024/03/30 03:55:32;;;;;;;4.43;1.58;;;15.20;71.90;;;;;;5045538;28;20033;-58
2024/03/30 03:57:58;;;;;;;6.13;1.55;;;15.20;71.90;;;;;;5045409;28;20018;-58
2024/03/30 04:00:24;;;;;;;7.00;1.85;;;15.30;71.90;;;;;;5045048;28;20057;-58
2024/03/30 04:02:49;;;;;;;5.82;1.45;;;15.20;71.60;;;;;;5028577;28;20059;-58
2024/03/30 04:05:15;;;;;;;9.55;1.98;;;15.20;71.80;;;;;;5044893;28;20029;-60
2024/03/30 04:07:41;;;;;;;7.18;1.65;;;15.20;71.80;;;;;;5046476;28;20037;-60
2024/03/30 04:10:07;;;;;;;9.40;1.95;;;15.20;71.50;;;;;;5045080;28;20030;-60
2024/03/30 04:12:33;;;;;;;8.27;2.08;;;15.20;70.90;;;;;;5044813;28;20097;-60
2024/03/30 04:14:59;;;;;;;7.68;1.83;;;15.20;71.10;;;;;;5046169;28;20189;-60
2024/03/30 04:17:25;;;;;;;11.32;1.80;;;15.20;71.10;;;;;;5044830;28;20044;-60
2024/03/30 04:19:50;;;;;;;9.27;1.50;;;15.20;70.80;;;;;;5044852;28;20456;-60
2024/03/30 04:22:16;;;;;;;8.57;1.88;;;15.20;70.70;;;;;;5044839;28;20482;-60
2024/03/30 04:24:42;;;;;;;11.10;1.77;;;15.20;70.70;;;;;;5044675;28;20029;-60
2024/03/30 04:27:07;;;;;;;9.25;2.15;;;15.20;71.00;;;;;;5045774;28;20047;-60
2024/03/30 04:29:33;;;;;;;9.10;1.95;;;15.20;70.90;;;;;;5046073;28;20363;-60
2024/03/30 04:31:58;;;;;;;7.15;1.50;;;15.20;70.90;;;;;;5027865;28;20433;-60
2024/03/30 04:34:25;;;;;;;9.65;1.48;;;15.10;70.70;;;;;;5045837;28;20053;-60
2024/03/30 04:36:51;;;;;;;6.18;1.83;;;15.10;70.70;;;;;;5044576;28;20033;-60
2024/03/30 04:39:16;;;;;;;6.47;1.60;;;15.10;70.50;;;;;;5044348;28;20052;-60
2024/03/30 04:41:42;;;;;;;8.93;1.40;;;15.10;71.00;;;;;;5045486;28;20029;-60
2024/03/30 04:44:08;;;;;;;6.28;1.42;;;15.10;71.10;;;;;;5044157;28;20055;-60
2024/03/30 04:46:33;;;;;;;10.02;1.60;;;15.10;71.30;;;;;;5045565;28;20106;-60
2024/03/30 04:48:59;;;;;;;8.20;1.25;;;15.10;71.10;;;;;;5044429;28;20033;-60
2024/03/30 04:51:24;;;;;;;6.60;1.70;;;15.10;71.30;;;;;;5044235;28;20026;-60
2024/03/30 04:53:50;;;;;;;6.25;1.83;;;15.10;71.10;;;;;;5044117;28;20033;-60
2024/03/30 04:56:16;;;;;;;7.60;1.45;;;15.10;71.30;;;;;;5027592;28;20048;-60
2024/03/30 04:58:41;;;;;;;6.97;1.25;;;15.10;71.30;;;;;;5044502;28;20057;-60
2024/03/30 05:01:08;;;;;;;5.22;1.60;;;15.00;71.20;;;;;;5045382;28;20025;-60
2024/03/30 05:03:34;;;;;;;5.50;1.33;;;15.10;71.40;;;;;;5043967;28;20033;-60
2024/03/30 05:06:00;;;;;;;7.15;1.65;;;15.10;71.10;;;;;;5027097;28;20028;-60
2024/03/30 05:08:28;;;;;;;9.10;1.42;;;15.10;71.20;;;;;;5043989;28;20029;-60
2024/03/30 05:10:53;;;;;;;6.05;1.60;;;15.00;71.20;;;;;;5044939;28;20025;-58
2024/03/30 05:13:19;;;;;;;5.63;1.20;;;15.00;71.50;;;;;;5045182;28;20041;-58
2024/03/30 05:15:45;;;;;;;4.57;1.30;;;15.00;71.40;;;;;;5043663;28;20167;-58
2024/03/30 05:18:11;;;;;;;4.63;1.17;;;15.00;71.60;;;;;;5043895;28;20060;-58
2024/03/30 05:20:49;;;;;;;5.13;1.15;;;15.00;71.60;;;;;;5045088;28;20025;-58
2024/03/30 05:23:22;;;;;;;6.40;1.58;;;15.00;71.50;;;;;;5043671;28;20085;-58
2024/03/30 05:25:48;;;;;;;7.28;1.30;;;15.00;71.80;;;;;;5043312;28;20029;-58
2024/03/30 05:28:16;;;;;;;11.15;1.77;;;14.90;71.60;;;;;;5043731;28;20033;-57
2024/03/30 05:30:42;;;;;;;5.05;1.10;;;14.90;71.60;;;;;;5043523;28;20022;-58
2024/03/30 05:33:08;;;;;;;2.58;1.20;;;15.00;71.80;;;;;;5043329;28;20120;-58
2024/03/30 05:35:35;;;;;;;4.63;1.40;;;14.90;71.80;;;;;;5043119;28;20025;-58
2024/03/30 05:38:00;;;;;;;6.45;1.58;;;15.00;72.00;;;;;;5043343;28;20032;-58
2024/03/30 05:40:26;;;;;;;7.53;1.50;;;14.90;71.90;;;;;;5044519;28;20037;-58
2024/03/30 05:42:52;;;;;;;8.32;1.75;;;14.90;72.00;;;;;;5044460;28;20049;-58
2024/03/30 05:45:18;;;;;;;5.60;1.33;;;14.90;72.60;;;;;;5043137;28;20086;-58
2024/03/30 05:47:45;;;;;;;3.50;1.05;;;14.90;72.30;;;;;;5042975;28;20101;-58
2024/03/30 05:50:10;;;;;;;4.30;1.10;;;14.90;72.40;;;;;;5026728;28;20033;-58
2024/03/30 05:52:36;;;;;;;5.68;1.58;;;14.90;72.40;;;;;;5044826;28;20037;-58
2024/03/30 05:55:03;;;;;;;3.35;1.30;;;14.90;72.30;;;;;;5043046;28;20499;-58
2024/03/30 05:57:28;;;;;;;5.03;1.33;;;14.90;72.30;;;;;;5043217;28;20037;-58
2024/03/30 05:59:54;;;;;;;6.50;1.40;;;14.90;72.30;;;;;;5043078;28;20052;-58
2024/03/30 06:02:19;;;;;;;4.95;1.17;;;14.90;72.30;;;;;;5042970;28;20045;-57
2024/03/30 06:04:45;;;;;;;5.13;1.55;;;14.90;72.40;;;;;;5042963;28;20092;-58
2024/03/30 06:07:11;;;;;;;10.23;1.67;;;14.90;72.60;;;;;;5044380;28;20033;-58
2024/03/30 06:09:36;;;;;;;14.27;2.67;;;14.90;72.60;;;;;;5042955;28;20029;-58
2024/03/30 06:12:03;;;;;;;7.60;1.50;;;14.90;72.40;;;;;;5042900;28;20034;-58
2024/03/30 06:14:30;;;;;;;5.40;1.00;;;14.90;72.50;;;;;;5042915;28;20035;-58
2024/03/30 06:16:56;;;;;;;7.88;1.75;;;14.90;72.70;;;;;;5043212;28;20128;-58
2024/03/30 06:19:22;;;;;;;10.40;1.95;;;14.90;72.50;;;;;;5044426;28;20021;-58
2024/03/30 06:21:47;;;;;;;10.55;1.83;;;14.90;72.20;;;;;;5042565;28;20048;-58
2024/03/30 06:24:13;;;;;;;6.65;1.33;;;15.00;72.60;;;;;;5044468;28;20036;-58
2024/03/30 06:26:39;;;;;;;6.65;1.80;;;14.90;72.70;;;;;;5054228;28;20037;-58
2024/03/30 06:29:04;;;;;;;11.15;2.50;;;15.00;73.00;;;;;;5063406;28;20073;-58
2024/03/30 06:31:30;;;;;;;11.73;2.78;;;15.00;73.10;;;;;;5062732;28;20032;-58
2024/03/30 06:33:55;;;;;;;8.27;2.47;;;14.90;72.60;;;;;;5058099;28;20032;-58
2024/03/30 06:36:21;;;;;;;6.15;1.60;;;14.90;72.80;;;;;;5059414;28;20061;-58
2024/03/30 06:38:47;;;;;;;9.52;1.90;;;15.00;73.10;;;;;;5042668;28;20114;-58
2024/03/30 06:43:56;;;;;;;9.98;2.50;;;15.00;73.20;;;;;;5043909;28;20091;-58
2024/03/30 06:46:22;;;;;;;11.73;1.98;;;14.90;72.70;;;;;;5042316;28;20037;-58
2024/03/30 06:48:48;;;;;;;10.57;2.33;;;15.00;72.80;;;;;;5043892;28;20037;-58
2024/03/30 06:51:13;;;;;;;14.95;2.30;;;15.00;72.80;;;;;;5059209;28;20033;-58
2024/03/30 06:53:40;;;;;;;18.75;3.25;;;15.00;73.50;;;;;;5043768;28;20053;-58
2024/03/30 06:56:06;;;;;;;24.08;4.90;;;15.00;72.80;;;;;;5058873;28;20029;-58
2024/03/30 06:58:31;;;;;;;14.13;3.78;;;15.00;72.90;;;;;;5043781;28;20060;-58
2024/03/30 07:00:57;;;;;;;17.98;3.80;;;15.00;72.90;;;;;;5059010;28;20453;-58
2024/03/30 07:03:22;;;;;;;19.25;4.05;;;15.00;72.90;;;;;;5042587;28;20048;-60
2024/03/30 07:05:48;;;;;;;24.80;5.78;;;15.00;73.60;;;;;;5059107;28;20522;-58
2024/03/30 07:08:14;;;;;;;25.95;4.70;;;15.10;72.90;;;;;;5059026;28;20033;-58
2024/03/30 07:10:39;;;;;;;38.60;8.25;;;15.00;72.90;;;;;;5058929;28;20021;-58
2024/03/30 07:13:05;;;;;;;50.90;10.77;;;15.10;72.90;;;;;;5042425;28;20116;-57
2024/03/30 07:15:30;;;;;;;33.38;5.88;;;15.10;72.90;;;;;;5042504;28;20080;-58
2024/03/30 07:17:58;;;;;;;29.15;5.55;;;15.10;72.70;;;;;;5061187;28;20029;-58
2024/03/30 07:20:23;;;;;;;31.88;5.65;;;15.10;72.40;;;;;;5058950;28;20030;-58
2024/03/30 07:22:49;;;;;;;31.58;5.25;;;15.20;72.10;;;;;;5047254;28;20033;-58
2024/03/30 07:25:15;;;;;;;27.63;4.35;;;15.20;71.80;;;;;;5069777;28;20043;-58
2024/03/30 07:27:40;;;;;;;21.52;4.75;;;15.20;71.40;;;;;;5060611;28;20099;-58
2024/03/30 07:30:06;;;;;;;74.95;10.60;;;15.20;71.10;;;;;;5065756;28;20436;-58
2024/03/30 07:32:34;;;;;;;68.55;10.45;;;15.20;71.80;;;;;;5059829;28;20044;-58
2024/03/30 07:35:00;;;;;;;70.05;11.82;;;15.30;72.60;;;;;;5047056;28;20029;-58
2024/03/30 07:37:25;;;;;;;75.53;13.40;;;15.30;72.70;;;;;;5045640;28;20033;-58
2024/03/30 07:39:51;;;;;;;77.22;13.02;;;15.30;72.00;;;;;;5046456;28;20030;-58
2024/03/30 07:42:16;;;;;;;52.55;10.45;;;15.30;72.20;;;;;;5047172;28;20048;-58
2024/03/30 07:44:42;;;;;;;50.55;7.82;;;15.30;71.80;;;;;;5044659;28;20488;-58
2024/03/30 07:47:08;;;;;;;39.17;7.40;;;15.30;71.00;;;;;;5043935;28;20029;-58
2024/03/30 07:49:33;;;;;;;55.40;8.32;;;15.40;71.00;;;;;;5045712;28;20037;-58
2024/03/30 07:52:03;;;;;;;60.78;9.40;;;15.40;71.00;;;;;;5058511;28;20060;-58
2024/03/30 07:54:29;;;;;;;42.33;8.43;;;15.40;71.50;;;;;;5066668;28;20029;-58
2024/03/30 07:56:58;;;;;;;55.75;7.88;;;15.40;71.50;;;;;;5065022;28;20060;-58
2024/03/30 07:59:24;;;;;;;45.90;8.15;;;15.50;71.00;;;;;;5066292;28;20048;-58
2024/03/30 08:01:50;;;;;;;51.40;9.20;;;15.50;71.40;;;;;;5065414;28;20044;-58
2024/03/30 08:04:16;;;;;;;43.30;8.05;;;15.50;72.20;;;;;;5048616;28;20029;-58
2024/03/30 08:06:55;;;;;;;43.30;8.27;;;15.50;72.30;;;;;;5048437;28;20356;-58
2024/03/30 08:09:21;;;;;;;54.08;9.82;;;15.60;72.40;;;;;;5064509;28;20041;-58
2024/03/30 08:11:48;;;;;;;43.42;8.13;;;15.50;72.30;;;;;;5065072;28;20029;-58
2024/03/30 08:14:16;;;;;;;42.55;8.05;;;15.60;72.40;;;;;;5065486;28;20036;-58
2024/03/30 08:16:43;;;;;;;46.17;8.10;;;15.60;72.30;;;;;;5065075;28;20040;-58
2024/03/30 08:19:10;;;;;;;34.42;8.00;;;15.60;72.20;;;;;;5048468;28;20175;-58
2024/03/30 08:21:36;;;;;;;41.28;7.07;;;15.70;72.20;;;;;;5064848;28;20037;-58
2024/03/30 08:24:02;;;;;;;47.40;7.25;;;15.70;72.20;;;;;;5064641;28;20047;-58
2024/03/30 08:26:27;;;;;;;32.42;7.38;;;15.70;72.20;;;;;;5048133;28;20025;-58
2024/03/30 08:28:53;;;;;;;42.72;9.35;;;15.70;72.10;;;;;;5066238;28;20053;-58
2024/03/30 08:31:19;;;;;;;39.25;8.13;;;15.70;72.10;;;;;;5064787;28;20033;-58
2024/03/30 08:33:45;;;;;;;39.08;7.22;;;15.70;71.90;;;;;;5064836;28;20036;-58
2024/03/30 08:36:11;;;;;;;39.70;7.15;;;15.80;72.00;;;;;;5047858;28;20037;-58
2024/03/30 08:38:37;;;;;;;35.35;7.78;;;15.80;72.20;;;;;;5047209;28;20044;-58
2024/03/30 08:41:02;;;;;;;36.85;6.85;;;15.80;72.20;;;;;;5060046;28;20057;-58
2024/03/30 08:43:28;;;;;;;34.17;6.80;;;15.90;72.00;;;;;;5045567;28;20033;-58
2024/03/30 08:45:54;;;;;;;31.92;6.88;;;15.90;71.80;;;;;;5043913;28;20036;-58
2024/03/30 08:48:20;;;;;;;35.78;7.15;;;15.90;71.70;;;;;;5044540;28;20082;-58
2024/03/30 08:50:46;;;;;;;44.38;8.27;;;15.90;71.70;;;;;;5031383;28;20088;-58
2024/03/30 08:53:11;;;;;;;32.50;6.88;;;16.00;71.80;;;;;;5064782;28;20108;-58
2024/03/30 08:55:37;;;;;;;37.53;7.68;;;16.00;71.80;;;;;;5062128;28;20021;-58
2024/03/30 08:58:04;;;;;;;36.33;6.43;;;16.00;71.60;;;;;;5062103;28;20507;-58
2024/03/30 09:00:30;;;;;;;38.60;6.88;;;16.10;71.60;;;;;;5045415;28;20035;-58
2024/03/30 09:02:56;;;;;;;24.27;6.18;;;16.10;71.60;;;;;;5064102;28;20029;-58
2024/03/30 09:05:22;;;;;;;25.95;6.38;;;16.10;71.40;;;;;;5047225;28;20036;-58
2024/03/30 09:07:47;;;;;;;26.52;6.90;;;16.10;71.60;;;;;;5047024;28;20032;-58
2024/03/30 09:10:13;;;;;;;37.30;6.00;;;16.20;71.60;;;;;;5046853;28;20025;-58
2024/03/30 09:12:39;;;;;;;32.38;5.95;;;16.20;71.40;;;;;;5046947;28;20032;-58
2024/03/30 09:15:05;;;;;;;24.23;5.47;;;16.20;71.30;;;;;;5065096;28;20098;-58
2024/03/30 09:17:30;;;;;;;27.45;5.93;;;16.20;71.10;;;;;;5063792;28;20424;-58
2024/03/30 09:19:56;;;;;;;29.55;5.78;;;16.30;71.00;;;;;;5064880;28;20029;-58
2024/03/30 09:22:23;;;;;;;23.20;5.03;;;16.30;70.90;;;;;;5047936;28;20082;-58
2024/03/30 09:24:50;;;;;;;20.25;4.57;;;16.40;70.80;;;;;;5063526;28;20022;-58
2024/03/30 09:27:16;;;;;;;23.20;4.07;;;16.40;70.60;;;;;;5064157;28;20033;-58
2024/03/30 09:29:42;;;;;;;26.55;5.55;;;16.40;70.60;;;;;;5063846;28;20028;-58
2024/03/30 09:32:07;;;;;;;23.17;5.10;;;16.40;70.50;;;;;;5063142;28;20473;-58
2024/03/30 09:34:33;;;;;;;29.08;5.72;;;16.40;70.40;;;;;;5063090;28;20105;-58
2024/03/30 09:36:58;;;;;;;19.90;5.10;;;16.50;70.50;;;;;;5063261;28;20040;-58
2024/03/30 09:39:24;;;;;;;25.70;5.47;;;16.50;70.30;;;;;;5063621;28;20033;-59
2024/03/30 09:41:50;;;;;;;31.40;5.97;;;16.60;70.00;;;;;;5064463;28;20441;-58
2024/03/30 09:44:16;;;;;;;32.10;6.65;;;16.60;70.10;;;;;;5062698;28;20021;-58
2024/03/30 09:46:46;;;;;;;34.05;5.15;;;16.60;70.10;;;;;;5062471;28;20082;-58
2024/03/30 09:49:12;;;;;;;40.47;6.10;;;16.70;69.90;;;;;;5063020;28;20033;-58
2024/03/30 09:51:38;;;;;;;39.13;6.03;;;16.70;69.70;;;;;;5062425;28;20032;-58
2024/03/30 09:54:04;;;;;;;32.17;5.75;;;16.70;69.50;;;;;;5026025;28;20025;-58
2024/03/30 09:56:30;;;;;;;46.33;6.72;;;16.80;69.40;;;;;;5024761;28;20033;-58
2024/03/30 09:58:58;;;;;;;40.75;6.88;;;16.80;69.40;;;;;;5062780;28;20024;-57
2024/03/30 10:01:24;;;;;;;61.15;9.50;;;16.80;69.70;;;;;;5062783;28;20033;-58
2024/03/30 10:03:49;;;;;;;136.40;14.10;;;16.90;70.70;;;;;;5062727;28;20039;-58
2024/03/30 10:06:18;;;;;;;45.60;7.32;;;16.90;70.40;;;;;;5063858;28;20324;-58
2024/03/30 10:08:44;;;;;;;50.25;8.38;;;16.90;70.00;;;;;;5046267;28;20032;-58
2024/03/30 10:11:10;;;;;;;41.05;6.70;;;16.90;69.50;;;;;;5029382;28;20340;-58
2024/03/30 10:13:46;;;;;;;59.58;8.52;;;17.00;68.60;;;;;;5062708;28;20025;-58
2024/03/30 10:16:14;;;;;;;71.05;9.63;;;17.00;68.40;;;;;;5047194;28;20033;-58
2024/03/30 10:18:39;;;;;;;348.15;39.78;;;17.10;69.20;;;;;;5067053;28;20107;-58
2024/03/30 10:21:05;;;;;;;141.75;18.52;;;17.10;69.10;;;;;;5063048;28;20196;-59
2024/03/30 10:23:31;;;;;;;128.27;12.95;;;17.10;68.90;;;;;;5045997;28;20479;-58
2024/03/30 10:25:56;;;;;;;81.85;12.35;;;17.20;70.70;;;;;;5045814;28;20017;-58
2024/03/30 10:28:22;;;;;;;121.45;12.38;;;17.20;69.60;;;;;;5063141;28;20543;-58
2024/03/30 10:30:48;;;;;;;172.75;19.27;;;17.20;68.60;;;;;;5062581;28;20128;-58
2024/03/30 10:33:16;;;;;;;73.10;10.95;;;17.20;68.70;;;;;;5065498;28;20089;-58
2024/03/30 10:35:42;;;;;;;59.30;8.57;;;17.30;68.90;;;;;;5061238;28;20025;-58
2024/03/30 10:38:07;;;;;;;63.95;8.15;;;17.30;68.20;;;;;;5062951;28;20085;-58
2024/03/30 10:40:36;;;;;;;67.60;9.40;;;17.30;67.70;;;;;;5061781;28;20103;-60
2024/03/30 10:43:02;;;;;;;60.15;8.93;;;17.40;67.40;;;;;;5027791;28;20037;-60
2024/03/30 10:45:28;;;;;;;136.15;16.17;;;17.40;67.30;;;;;;5063109;28;20028;-60
2024/03/30 10:47:57;;;;;;;180.77;18.77;;;17.40;68.20;;;;;;5049247;28;20033;-60
2024/03/30 10:50:24;;;;;;;157.68;18.52;;;17.50;69.00;;;;;;5054862;28;20026;-60
2024/03/30 10:52:50;;;;;;;266.98;26.98;;;17.40;69.00;;;;;;5061829;28;20071;-60
2024/03/30 10:55:16;;;;;;;238.07;26.45;;;17.50;68.80;;;;;;5028019;28;20021;-58
2024/03/30 10:57:41;;;;;;;228.63;24.10;;;17.50;68.90;;;;;;5065348;28;20411;-58
2024/03/30 11:00:10;;;;;;;223.48;23.80;;;17.50;68.80;;;;;;5050212;28;20025;-58
2024/03/30 11:02:38;;;;;;;231.45;22.40;;;17.50;68.70;;;;;;5050286;28;20059;-58
2024/03/30 11:05:06;;;;;;;231.57;21.80;;;17.50;68.60;;;;;;5050622;28;20040;-58
2024/03/30 11:07:36;;;;;;;254.68;25.00;;;17.60;68.30;;;;;;5049470;28;20029;-58
2024/03/30 11:10:03;;;;;;;246.57;25.35;;;17.60;68.30;;;;;;5049501;28;20098;-59
2024/03/30 11:12:28;;;;;;;207.90;21.35;;;17.70;68.50;;;;;;5064814;28;20035;-58
2024/03/30 11:14:55;;;;;;;177.50;20.27;;;17.70;68.00;;;;;;5049489;28;20076;-58
2024/03/30 11:17:24;;;;;;;201.20;20.38;;;17.70;67.60;;;;;;5060690;28;20052;-58
2024/03/30 11:20:02;;;;;;;181.68;22.05;;;17.70;67.30;;;;;;5065462;28;20032;-58
2024/03/30 11:22:39;;;;;;;187.73;21.48;;;17.80;67.40;;;;;;5066960;28;20044;-58
2024/03/30 11:25:08;;;;;;;212.38;24.50;;;17.80;67.20;;;;;;5067253;28;20094;-58
2024/03/30 11:27:34;;;;;;;231.60;24.48;;;17.90;67.00;;;;;;5048496;28;20508;-58
2024/03/30 11:30:07;;;;;;;174.40;21.02;;;17.90;67.00;;;;;;5065163;28;20135;-58
2024/03/30 11:32:35;;;;;;;211.60;22.40;;;18.00;66.70;;;;;;5030101;28;20034;-58
2024/03/30 11:35:18;;;;;;;251.98;25.85;;;18.00;66.60;;;;;;5044182;28;20061;-58
2024/03/30 11:37:43;;;;;;;211.90;22.23;;;18.00;66.60;;;;;;5049095;28;20052;-58
2024/03/30 11:40:23;;;;;;;178.15;23.27;;;18.10;66.60;;;;;;5048520;28;20033;-58
2024/03/30 11:42:58;;;;;;;191.50;23.55;;;18.10;66.50;;;;;;5057670;28;20460;-58
2024/03/30 11:45:26;;;;;;;199.73;24.25;;;18.20;66.40;;;;;;5049230;28;20033;-58
2024/03/30 11:47:52;;;;;;;220.98;26.35;;;18.20;66.30;;;;;;5048135;28;20143;-58
2024/03/30 11:50:18;;;;;;;182.55;22.60;;;18.20;66.20;;;;;;5032072;28;20032;-58
2024/03/30 11:52:47;;;;;;;160.60;20.60;;;18.20;65.80;;;;;;5047785;28;20036;-58
2024/03/30 11:55:12;;;;;;;177.60;22.10;;;18.30;65.60;;;;;;5065139;28;20040;-58
2024/03/30 11:57:38;;;;;;;186.50;19.65;;;18.30;65.60;;;;;;5044842;28;20033;-58
2024/03/30 12:00:04;;;;;;;154.93;21.00;;;18.40;65.40;;;;;;5056788;28;20127;-58
2024/03/30 12:02:32;;;;;;;137.50;18.30;;;18.40;65.30;;;;;;5064422;28;20118;-58
2024/03/30 12:05:01;;;;;;;139.35;18.30;;;18.50;64.80;;;;;;5063332;28;20052;-58
2024/03/30 12:07:36;;;;;;;123.88;17.33;;;18.60;65.00;;;;;;5064442;28;20029;-58
2024/03/30 12:10:02;;;;;;;123.97;17.65;;;18.60;65.20;;;;;;5055168;28;20017;-61
2024/03/30 12:12:28;;;;;;;113.85;17.40;;;18.70;65.30;;;;;;5047660;28;20047;-60
2024/03/30 12:14:54;;;;;;;146.57;18.17;;;18.70;65.20;;;;;;5064141;28;20040;-58
2024/03/30 12:17:20;;;;;;;152.82;18.65;;;18.70;65.30;;;;;;5064501;28;20531;-58
2024/03/30 12:19:48;;;;;;;123.07;16.30;;;18.80;65.70;;;;;;5065823;28;20204;-58
2024/03/30 12:22:14;;;;;;;121.47;18.27;;;18.80;65.20;;;;;;5047648;28;20033;-58
2024/03/30 12:24:41;;;;;;;114.40;15.95;;;18.90;65.00;;;;;;5063954;28;20036;-58
2024/03/30 12:27:06;;;;;;;125.32;16.27;;;18.90;64.70;;;;;;5047750;28;20032;-58
2024/03/30 12:29:32;;;;;;;132.45;16.40;;;19.00;64.90;;;;;;5064156;28;20364;-58
2024/03/30 12:31:58;;;;;;;110.00;16.92;;;19.00;64.70;;;;;;5065012;28;20174;-58
2024/03/30 12:34:23;;;;;;;120.18;16.77;;;19.10;64.60;;;;;;5047086;28;20035;-57
2024/03/30 12:36:49;;;;;;;135.45;18.50;;;19.10;64.10;;;;;;5047354;28;20040;-58